Time;durP1;ratioP1;P1;durP2;ratioP2;P2;SDS_P1;SDS_P2;PMS_P1;PMS_P2;Temp;Humidity;BMP_temperature;BMP_pressure;BME280_temperature;BME280_humidity;BME280_pressure;Samples;Min_cycle;Max_cycle;Signal;HPM_P1;HPM_P2
2023/02/11 00:01:15;;;;;;;;;;;;;;;26.53;35.71;95998.47;4912313;29;7050;-61
2023/02/11 00:04:05;;;;;;;;;;;;;;;26.53;35.16;95998.47;4894023;29;7548;-61
2023/02/11 00:06:57;;;;;;;;;;;;;;;26.52;35.19;95994.16;4875700;29;9611;-61
2023/02/11 00:09:38;;;;;;;;;;;;;;;26.50;35.22;95999.41;4875868;29;7044;-61
2023/02/11 00:12:14;;;;;;;;;;;;;;;26.51;35.36;96005.69;4869910;29;9125;-61
2023/02/11 00:15:05;;;;;;;;;;;;;;;26.51;35.18;95997.41;4888876;29;7259;-61
2023/02/11 00:17:55;;;;;;;;;;;;;;;26.50;35.76;95998.63;4887143;29;7273;-61
2023/02/11 00:20:21;;;;;;;;;;;;;;;26.47;35.84;95991.34;4888792;29;7402;-61
2023/02/11 00:23:34;;;;;;;;;;;;;;;26.47;35.35;95985.81;4913099;29;7263;-61
2023/02/11 00:26:20;;;;;;;;;;;;;;;26.45;35.51;95977.22;4913559;29;7268;-61
2023/02/11 00:29:13;;;;;;;;;;;;;;;26.47;35.28;95992.06;4903992;29;7126;-61
2023/02/11 00:31:56;;;;;;;;;;;;;;;26.46;35.74;95989.78;4933958;28;9399;-61
2023/02/11 00:34:35;;;;;;;;;;;;;;;26.45;35.17;95994.53;4969963;28;7084;-61
2023/02/11 00:37:04;;;;;;;;;;;;;;;26.45;35.38;95988.25;4971347;28;9058;-61
2023/02/11 00:40:00;;;;;;;;;;;;;;;26.45;35.42;95988.25;4982533;28;7116;-61
2023/02/11 00:42:37;;;;;;;;;;;;;;;26.45;35.42;95991.03;4990167;28;7445;-61
2023/02/11 00:45:03;;;;;;;;;;;;;;;26.43;35.54;95999.03;4988620;28;9064;-61
2023/02/11 00:47:30;;;;;;;;;;;;;;;26.42;35.48;95994.75;4961251;28;7590;-61
2023/02/11 00:49:59;;;;;;;;;;;;;;;26.42;36.09;95986.47;4989875;28;8742;-61
2023/02/11 00:52:29;;;;;;;;;;;;;;;26.42;35.24;95989.25;4974860;28;7296;-61
2023/02/11 00:55:06;;;;;;;;;;;;;;;26.41;35.80;95990.47;4993591;28;7239;-61
2023/02/11 00:57:45;;;;;;;;;;;;;;;26.41;35.86;95982.94;4993314;28;8634;-61
2023/02/11 01:00:14;;;;;;;;;;;;;;;26.42;35.81;95989.25;4977218;28;7052;-61
2023/02/11 01:02:51;;;;;;;;;;;;;;;26.40;35.92;95983.44;4993377;28;7458;-62
2023/02/11 01:05:39;;;;;;;;;;;;;;;26.37;36.11;95992.66;4991851;28;7141;-61
2023/02/11 01:08:24;;;;;;;;;;;;;;;26.40;36.41;95992.47;4973346;28;7129;-61
2023/02/11 01:11:02;;;;;;;;;;;;;;;26.39;36.32;95996.47;4993194;28;9058;-61
2023/02/11 01:13:57;;;;;;;;;;;;;;;26.39;35.32;95995.69;4972303;28;8471;-61
2023/02/11 01:16:25;;;;;;;;;;;;;;;26.39;35.47;95984.66;4992852;28;7356;-61
2023/02/11 01:18:54;;;;;;;;;;;;;;;26.36;35.54;95975.34;4994414;28;7126;-61
2023/02/11 01:21:35;;;;;;;;;;;;;;;26.36;35.84;95971.84;5027658;28;7125;-61
2023/02/11 01:24:09;;;;;;;;;;;;;;;26.35;36.13;95957.28;5016648;28;8977;-61
2023/02/11 01:26:41;;;;;;;;;;;;;;;26.37;35.43;95956.78;5030832;28;8411;-61
2023/02/11 01:29:17;;;;;;;;;;;;;;;26.37;36.10;95954.81;5011623;28;9104;-62
2023/02/11 01:31:45;;;;;;;;;;;;;;;26.36;35.24;95947.00;5014762;28;7043;-61
2023/02/11 01:34:25;;;;;;;;;;;;;;;26.34;36.19;95946.72;5028161;28;7000;-61
2023/02/11 01:36:58;;;;;;;;;;;;;;;26.35;35.72;95939.97;5013509;28;7357;-61
2023/02/11 01:39:43;;;;;;;;;;;;;;;26.34;36.00;95941.97;5014951;28;7811;-61
2023/02/11 01:42:22;;;;;;;;;;;;;;;26.35;35.57;95939.97;5013228;28;7242;-61
2023/02/11 01:45:23;;;;;;;;;;;;;;;26.33;36.05;95934.94;5015206;28;9273;-61
2023/02/11 01:48:01;;;;;;;;;;;;;;;26.32;35.88;95930.66;5023981;28;7321;-61
2023/02/11 01:50:27;;;;;;;;;;;;;;;26.32;35.62;95929.91;5025811;28;7267;-61
2023/02/11 01:57:20;;;;;;;;;;;;;;;26.31;36.11;95931.13;5012421;28;7055;-61
2023/02/11 01:58:34;;;;;;;;;;;;;;;26.31;36.47;95914.56;5013340;28;7114;-61
2023/02/11 02:01:05;;;;;;;;;;;;;;;26.29;35.68;95911.53;5002285;28;9369;-62
2023/02/11 02:03:40;;;;;;;;;;;;;;;26.31;35.79;95917.34;5011372;28;9492;-61
2023/02/11 02:06:32;;;;;;;;;;;;;;;26.31;35.80;95920.88;5022881;28;7267;-61
2023/02/11 02:09:15;;;;;;;;;;;;;;;26.30;36.27;95913.81;5005296;28;9048;-61
2023/02/11 02:11:41;;;;;;;;;;;;;;;26.28;36.14;95910.78;5005087;28;9374;-61
2023/02/11 02:14:08;;;;;;;;;;;;;;;26.28;36.17;95901.72;5021952;28;7403;-61
2023/02/11 02:16:36;;;;;;;;;;;;;;;26.32;35.68;95902.31;5020676;28;9059;-61
2023/02/11 02:19:29;;;;;;;;;;;;;;;26.30;35.65;95899.25;5010392;28;8642;-61
2023/02/11 02:22:27;;;;;;;;;;;;;;;26.30;35.64;95905.53;5022058;28;9405;-61
2023/02/11 02:25:33;;;;;;;;;;;;;;;26.30;35.50;95894.50;5003384;28;8173;-61
2023/02/11 02:28:17;;;;;;;;;;;;;;;26.28;35.68;95888.72;4934168;28;7148;-61
2023/02/11 02:31:29;;;;;;;;;;;;;;;26.30;36.13;95888.22;4949637;28;8998;-61
2023/02/11 02:34:22;;;;;;;;;;;;;;;26.29;36.36;95887.50;4931861;28;6996;-61
2023/02/11 02:37:06;;;;;;;;;;;;;;;26.30;36.56;95877.19;4954609;28;9009;-61
2023/02/11 02:39:47;;;;;;;;;;;;;;;26.28;36.50;95874.16;4935951;28;7349;-61
2023/02/11 02:42:33;;;;;;;;;;;;;;;26.29;36.36;95870.94;4953771;28;7262;-61
2023/02/11 02:45:32;;;;;;;;;;;;;;;26.29;35.70;95870.16;4936643;28;8699;-61
2023/02/11 02:48:26;;;;;;;;;;;;;;;26.28;36.30;95863.88;4949201;28;9163;-61
2023/02/11 02:51:29;;;;;;;;;;;;;;;26.28;36.28;95866.66;4931032;28;9383;-61
2023/02/11 02:54:49;;;;;;;;;;;;;;;26.27;36.00;95856.09;4856873;29;9496;-61
2023/02/11 02:57:27;;;;;;;;;;;;;;;26.26;36.00;95860.09;4852842;29;7552;-61
2023/02/11 03:00:28;;;;;;;;;;;;;;;26.27;35.59;95861.63;4856281;29;7789;-61
2023/02/11 03:03:21;;;;;;;;;;;;;;;26.26;35.98;95865.59;4890145;28;7033;-61
2023/02/11 03:06:09;;;;;;;;;;;;;;;26.27;35.81;95864.38;4935734;28;9435;-61
2023/02/11 03:08:45;;;;;;;;;;;;;;;26.27;36.19;95864.38;4945218;28;8225;-61
2023/02/11 03:11:16;;;;;;;;;;;;;;;26.27;36.41;95856.88;4948739;28;8788;-61
2023/02/11 03:14:02;;;;;;;;;;;;;;;26.27;35.85;95864.38;4951630;28;9507;-61
2023/02/11 03:16:59;;;;;;;;;;;;;;;26.27;36.54;95867.91;4945505;28;7266;-61
2023/02/11 03:20:04;;;;;;;;;;;;;;;26.26;35.55;95868.34;4905671;29;8900;-61
2023/02/11 03:22:44;;;;;;;;;;;;;;;26.26;35.51;95887.66;4845619;29;7191;-61
2023/02/11 03:25:30;;;;;;;;;;;;;;;26.24;36.45;95888.16;4854820;29;7048;-61
2023/02/11 03:28:11;;;;;;;;;;;;;;;26.25;36.32;95886.16;4857839;29;8157;-61
2023/02/11 03:31:11;;;;;;;;;;;;;;;26.25;36.54;95880.66;4864214;29;9077;-61
2023/02/11 03:34:17;;;;;;;;;;;;;;;26.24;36.54;95874.38;4904883;29;7509;-61
2023/02/11 03:37:06;;;;;;;;;;;;;;;26.23;35.68;95881.09;4855624;29;7345;-62
2023/02/11 03:39:59;;;;;;;;;;;;;;;26.22;36.49;95879.59;4857246;29;7277;-61
2023/02/11 03:43:03;;;;;;;;;;;;;;;26.22;36.67;95874.09;4850203;29;8666;-61
2023/02/11 03:45:46;;;;;;;;;;;;;;;26.23;35.58;95877.59;4853882;29;6966;-61
2023/02/11 03:48:33;;;;;;;;;;;;;;;26.23;36.67;95872.84;4841611;29;7664;-62
2023/02/11 03:51:22;;;;;;;;;;;;;;;26.22;36.50;95871.31;4855112;29;9061;-61
2023/02/11 03:53:58;;;;;;;;;;;;;;;26.20;36.05;95864.78;4866304;29;7247;-61
2023/02/11 03:56:42;;;;;;;;;;;;;;;26.21;35.90;95863.53;4896051;29;7051;-61
2023/02/11 03:59:09;;;;;;;;;;;;;;;26.19;36.53;95847.44;4926502;29;6997;-61
2023/02/11 04:01:35;;;;;;;;;;;;;;;26.20;36.58;95857.25;4932836;29;7144;-61
2023/02/11 04:04:02;;;;;;;;;;;;;;;26.19;36.44;95852.22;4932115;29;8419;-61
2023/02/11 04:06:39;;;;;;;;;;;;;;;26.20;35.87;95854.50;4933279;29;9031;-61
2023/02/11 04:09:20;;;;;;;;;;;;;;;26.20;36.52;95857.25;4902808;29;6977;-61
2023/02/11 04:11:46;;;;;;;;;;;;;;;26.20;36.29;95856.50;5022367;28;7205;-61
2023/02/11 04:14:21;;;;;;;;;;;;;;;26.21;36.66;95858.03;5023720;28;7009;-62
2023/02/11 04:16:55;;;;;;;;;;;;;;;26.16;36.34;95840.91;5025804;28;7108;-61
2023/02/11 04:19:32;;;;;;;;;;;;;;;26.20;36.62;95850.97;5028332;28;8957;-61
2023/02/11 04:22:35;;;;;;;;;;;;;;;26.19;36.61;95855.72;5016206;28;7478;-62
2023/02/11 04:25:02;;;;;;;;;;;;;;;26.19;36.39;95860.50;4993969;28;7292;-61
2023/02/11 04:27:30;;;;;;;;;;;;;;;26.19;36.40;95860.50;5011339;28;9018;-61
2023/02/11 04:30:41;;;;;;;;;;;;;;;26.19;36.10;95849.47;5001844;28;9158;-61
2023/02/11 04:33:07;;;;;;;;;;;;;;;26.21;36.16;95841.47;4950959;28;8121;-62
2023/02/11 04:35:42;;;;;;;;;;;;;;;26.17;36.28;95842.44;4959454;28;8276;-61
2023/02/11 04:38:08;;;;;;;;;;;;;;;26.18;36.01;95840.44;4967255;28;9018;-61
2023/02/11 04:41:07;;;;;;;;;;;;;;;26.18;36.60;95851.47;4977103;28;7029;-61
2023/02/11 04:43:46;;;;;;;;;;;;;;;26.17;36.24;95850.69;4967558;28;8897;-61
2023/02/11 04:46:27;;;;;;;;;;;;;;;26.15;36.54;95850.41;4967025;28;8583;-61
2023/02/11 04:49:16;;;;;;;;;;;;;;;26.17;36.06;95853.47;4964951;28;7027;-61
2023/02/11 04:51:54;;;;;;;;;;;;;;;26.18;36.23;95848.72;4959549;28;9726;-61
2023/02/11 04:54:25;;;;;;;;;;;;;;;26.16;36.48;95851.94;4976303;28;8826;-61
2023/02/11 04:57:04;;;;;;;;;;;;;;;26.14;35.86;95851.66;4957462;28;9090;-61
2023/02/11 05:00:07;;;;;;;;;;;;;;;26.15;35.90;95861.44;4951898;28;7696;-61
2023/02/11 05:02:52;;;;;;;;;;;;;;;26.15;36.15;95858.69;4897467;29;7267;-61
2023/02/11 05:05:25;;;;;;;;;;;;;;;26.15;36.46;95860.69;4898505;29;9077;-61
2023/02/11 05:08:02;;;;;;;;;;;;;;;26.09;36.61;95846.06;4882712;29;8948;-61
2023/02/11 05:10:28;;;;;;;;;;;;;;;26.10;36.52;95850.31;4937774;28;8811;-61
2023/02/11 05:13:33;;;;;;;;;;;;;;;26.12;35.89;95858.91;4957378;28;9038;-61
2023/02/11 05:15:58;;;;;;;;;;;;;;;26.14;35.89;95859.19;4973135;28;9630;-61
2023/02/11 05:18:37;;;;;;;;;;;;;;;26.12;36.33;95854.13;4972971;28;7021;-61
2023/02/11 05:21:13;;;;;;;;;;;;;;;26.11;35.88;95851.84;4957784;28;8728;-61
2023/02/11 05:23:48;;;;;;;;;;;;;;;26.11;36.85;95851.84;4970538;28;7136;-61
2023/02/11 05:26:17;;;;;;;;;;;;;;;26.10;36.01;95853.84;4972866;28;8765;-61
2023/02/11 05:29:16;;;;;;;;;;;;;;;26.09;36.89;95868.13;4970192;28;7203;-61
2023/02/11 05:31:55;;;;;;;;;;;;;;;26.08;36.79;95869.31;4928687;29;9302;-61
2023/02/11 05:34:22;;;;;;;;;;;;;;;26.09;36.34;95868.88;4933233;28;7688;-61
2023/02/11 05:36:57;;;;;;;;;;;;;;;26.12;36.68;95867.19;4930046;28;7219;-61
2023/02/11 05:39:23;;;;;;;;;;;;;;;26.10;36.58;95862.13;4953753;28;9073;-61
2023/02/11 05:41:51;;;;;;;;;;;;;;;26.08;36.44;95861.03;4952592;28;7006;-61
2023/02/11 05:44:19;;;;;;;;;;;;;;;26.06;36.80;95863.53;4954332;28;7566;-61
2023/02/11 05:47:15;;;;;;;;;;;;;;;26.07;36.05;95873.34;4954696;28;7050;-61
2023/02/11 05:49:52;;;;;;;;;;;;;;;26.07;36.20;95871.34;4881903;29;9053;-62
2023/02/11 05:52:21;;;;;;;;;;;;;;;26.07;35.98;95871.34;4890326;29;7053;-61
2023/02/11 05:55:07;;;;;;;;;;;;;;;26.03;36.80;95876.25;4884699;29;7315;-61
2023/02/11 05:57:33;;;;;;;;;;;;;;;26.03;36.03;95883.81;4889151;29;7268;-61
2023/02/11 05:59:59;;;;;;;;;;;;;;;26.02;36.47;95885.03;4887822;29;7234;-61
2023/02/11 06:02:33;;;;;;;;;;;;;;;26.03;36.39;95884.53;4896966;29;8944;-61
2023/02/11 06:05:04;;;;;;;;;;;;;;;26.06;36.14;95883.59;4891944;29;9317;-61
2023/02/11 06:07:30;;;;;;;;;;;;;;;26.03;36.21;95886.56;4889522;29;7041;-62
2023/02/11 06:09:57;;;;;;;;;;;;;;;26.07;36.21;95896.16;4913208;29;9029;-61
2023/02/11 06:12:26;;;;;;;;;;;;;;;26.05;35.96;95890.34;4913140;29;8877;-61
2023/02/11 06:14:54;;;;;;;;;;;;;;;26.04;36.63;95894.34;4912375;29;9057;-61
2023/02/11 06:17:24;;;;;;;;;;;;;;;26.04;35.99;95899.09;4896467;29;9054;-61
2023/02/11 06:20:15;;;;;;;;;;;;;;;26.03;36.52;95898.31;4915911;29;8264;-62
2023/02/11 06:22:54;;;;;;;;;;;;;;;26.06;36.54;95899.38;4913535;29;7312;-61
2023/02/11 06:25:22;;;;;;;;;;;;;;;26.12;35.65;95894.75;4932343;28;7488;-61
2023/02/11 06:27:52;;;;;;;;;;;;;;;26.13;34.40;95885.22;5009957;28;7673;-61
2023/02/11 06:30:22;;;;;;;;;;;;;;;26.06;34.94;95880.84;5010827;28;8360;-61
2023/02/11 06:32:50;;;;;;;;;;;;;;;26.03;35.22;95881.03;5025806;28;9463;-61
2023/02/11 06:35:34;;;;;;;;;;;;;;;26.01;36.24;95884.25;5025792;28;9338;-61
2023/02/11 06:38:30;;;;;;;;;;;;;;;26.04;35.89;95896.34;5008526;28;7234;-61
2023/02/11 06:41:15;;;;;;;;;;;;;;;26.01;35.64;95898.03;4934016;28;7488;-61
2023/02/11 06:43:53;;;;;;;;;;;;;;;26.02;35.59;95901.56;4953773;28;9056;-61
2023/02/11 06:46:29;;;;;;;;;;;;;;;26.01;36.56;95906.31;4948423;28;9286;-61
2023/02/11 06:49:13;;;;;;;;;;;;;;;26.00;36.23;95895.78;4940005;28;7239;-61
2023/02/11 06:51:42;;;;;;;;;;;;;;;25.99;36.25;95908.78;4958406;28;8967;-61
2023/02/11 06:54:39;;;;;;;;;;;;;;;26.07;35.59;95903.66;4929822;28;7100;-61
2023/02/11 06:57:05;;;;;;;;;;;;;;;26.03;36.45;95906.59;4902969;29;7337;-61
2023/02/11 06:59:42;;;;;;;;;;;;;;;26.02;36.34;95910.59;4893853;29;7114;-61
2023/02/11 07:02:09;;;;;;;;;;;;;;;25.97;35.73;95908.50;4906001;29;7201;-61
2023/02/11 07:04:55;;;;;;;;;;;;;;;26.04;35.92;95912.88;4916072;29;9124;-62
2023/02/11 07:07:39;;;;;;;;;;;;;;;26.10;36.21;95913.75;4911118;29;8759;-61
2023/02/11 07:10:07;;;;;;;;;;;;;;;26.15;35.41;95915.84;4919800;29;7434;-61
2023/02/11 07:12:40;;;;;;;;;;;;;;;26.12;35.07;95908.53;4917167;29;7176;-61
2023/02/11 07:15:07;;;;;;;;;;;;;;;26.11;35.27;95918.03;4910666;29;9767;-62
2023/02/11 07:17:34;;;;;;;;;;;;;;;26.09;35.12;95915.78;4922425;29;7187;-61
2023/02/11 07:20:01;;;;;;;;;;;;;;;26.07;34.63;95914.69;4928350;29;9504;-61
2023/02/11 07:22:33;;;;;;;;;;;;;;;26.05;35.58;95904.16;4933233;29;6998;-61
2023/02/11 07:25:00;;;;;;;;;;;;;;;26.02;35.43;95899.56;4936833;28;9055;-61
2023/02/11 07:27:27;;;;;;;;;;;;;;;26.07;35.43;95901.66;4923537;29;7260;-62
2023/02/11 07:30:04;;;;;;;;;;;;;;;26.03;35.67;95903.09;4921190;29;9022;-62
2023/02/11 07:32:32;;;;;;;;;;;;;;;26.02;35.87;95904.31;4940751;28;8697;-62
2023/02/11 07:35:01;;;;;;;;;;;;;;;26.02;35.79;95907.84;5024919;28;9325;-62
2023/02/11 07:37:29;;;;;;;;;;;;;;;26.03;36.04;95912.13;5026124;28;7784;-62
2023/02/11 07:39:56;;;;;;;;;;;;;;;26.01;36.04;95914.59;5008466;28;7324;-62
2023/02/11 07:42:23;;;;;;;;;;;;;;;25.99;36.50;95911.53;5020418;28;7380;-61
2023/02/11 07:44:50;;;;;;;;;;;;;;;25.99;35.88;95919.81;5002922;28;7537;-61
2023/02/11 07:47:25;;;;;;;;;;;;;;;25.94;36.54;95892.94;5004710;28;7046;-62
2023/02/11 07:49:53;;;;;;;;;;;;;;;25.98;35.98;95889.97;5007651;28;7280;-62
2023/02/11 07:52:21;;;;;;;;;;;;;;;25.99;36.27;95891.50;5023914;28;9268;-61
2023/02/11 07:54:48;;;;;;;;;;;;;;;25.99;35.80;95886.00;5024150;28;9215;-62
2023/02/11 07:57:14;;;;;;;;;;;;;;;25.98;35.86;95882.47;5006814;28;8961;-62
2023/02/11 07:59:41;;;;;;;;;;;;;;;25.99;36.01;95883.97;5025013;28;8901;-62
2023/02/11 08:02:37;;;;;;;;;;;;;;;26.04;36.22;95880.56;5013597;28;9388;-61
2023/02/11 08:05:16;;;;;;;;;;;;;;;26.09;36.26;95885.44;4984506;28;7121;-61
2023/02/11 08:07:44;;;;;;;;;;;;;;;26.19;35.23;95890.84;4990812;28;9036;-62
2023/02/11 08:10:10;;;;;;;;;;;;;;;26.21;34.66;95885.59;4988946;28;7293;-62
2023/02/11 08:12:43;;;;;;;;;;;;;;;26.24;34.33;95901.19;4973708;28;8996;-61
2023/02/11 08:15:21;;;;;;;;;;;;;;;26.28;34.71;95896.97;4988046;28;9076;-62
2023/02/11 08:17:47;;;;;;;;;;;;;;;26.26;33.65;95896.72;4987767;28;9111;-62
2023/02/11 08:20:21;;;;;;;;;;;;;;;26.22;34.77;95901.66;4992532;28;7909;-61
2023/02/11 08:22:47;;;;;;;;;;;;;;;26.20;34.43;95900.63;4971730;28;9188;-61
2023/02/11 08:25:26;;;;;;;;;;;;;;;26.22;34.14;95900.91;4972417;28;7027;-62
2023/02/11 08:28:02;;;;;;;;;;;;;;;26.25;34.37;95892.44;4972461;28;7097;-62
2023/02/11 08:30:38;;;;;;;;;;;;;;;26.25;34.68;95891.69;4974985;28;7536;-62
2023/02/11 08:33:23;;;;;;;;;;;;;;;26.25;34.23;95902.72;4973653;28;7115;-62
2023/02/11 08:36:12;;;;;;;;;;;;;;;26.28;34.51;95893.47;4969930;28;7216;-62
2023/02/11 08:38:47;;;;;;;;;;;;;;;26.32;35.06;95889.25;4990755;28;8746;-62
2023/02/11 08:41:17;;;;;;;;;;;;;;;26.32;34.58;95881.00;4997156;28;7214;-62
2023/02/11 08:43:51;;;;;;;;;;;;;;;26.34;35.08;95875.00;5028609;28;8740;-61
2023/02/11 08:46:18;;;;;;;;;;;;;;;26.36;34.57;95869.78;5011694;28;7099;-62
2023/02/11 08:49:10;;;;;;;;;;;;;;;26.33;35.26;95862.44;5012310;28;9194;-62
2023/02/11 08:51:43;;;;;;;;;;;;;;;26.28;35.02;95858.38;5026651;28;7215;-62
2023/02/11 08:54:12;;;;;;;;;;;;;;;26.26;35.06;95855.34;5011473;28;9123;-62
2023/02/11 08:56:49;;;;;;;;;;;;;;;26.24;34.66;95854.28;5025154;28;9092;-62
2023/02/11 08:59:16;;;;;;;;;;;;;;;26.22;34.81;95849.25;5024346;28;7033;-62
2023/02/11 09:01:45;;;;;;;;;;;;;;;26.18;35.29;95837.69;5026229;28;9153;-62
2023/02/11 09:04:30;;;;;;;;;;;;;;;26.21;34.36;95839.47;5005228;28;9666;-62
2023/02/11 09:07:15;;;;;;;;;;;;;;;26.22;34.89;95829.19;5027358;28;7278;-62
2023/02/11 09:10:07;;;;;;;;;;;;;;;26.26;35.33;95821.47;5032687;28;7716;-61
2023/02/11 09:12:42;;;;;;;;;;;;;;;26.26;34.48;95824.22;5029661;28;8747;-62
2023/02/11 09:15:08;;;;;;;;;;;;;;;26.29;34.87;95826.03;5009487;28;7259;-62
2023/02/11 09:17:45;;;;;;;;;;;;;;;26.30;35.54;95827.53;5026647;28;7037;-62
2023/02/11 09:20:21;;;;;;;;;;;;;;;26.36;35.03;95831.88;5027767;28;7281;-62
2023/02/11 09:22:49;;;;;;;;;;;;;;;26.40;35.21;95832.47;5030347;28;7259;-62
2023/02/11 09:25:28;;;;;;;;;;;;;;;26.46;34.37;95851.84;5030289;28;7155;-62
2023/02/11 09:27:59;;;;;;;;;;;;;;;26.48;34.12;95863.91;5031128;28;9043;-62
2023/02/11 09:30:25;;;;;;;;;;;;;;;26.43;34.19;95869.34;5030105;28;8872;-62
2023/02/11 09:32:54;;;;;;;;;;;;;;;26.36;34.33;95886.31;5029659;28;9190;-62
2023/02/11 09:35:20;;;;;;;;;;;;;;;26.36;34.38;95892.56;5013495;28;7318;-62
2023/02/11 09:37:46;;;;;;;;;;;;;;;26.32;35.07;95891.28;5024745;28;8732;-62
2023/02/11 09:40:14;;;;;;;;;;;;;;;26.30;34.86;95904.78;5027553;28;7228;-62
2023/02/11 09:42:52;;;;;;;;;;;;;;;26.30;34.59;95896.50;5017873;28;7045;-61
2023/02/11 09:45:23;;;;;;;;;;;;;;;26.26;34.88;95891.19;5010783;28;7207;-62
2023/02/11 09:48:17;;;;;;;;;;;;;;;26.28;34.95;95899.75;5008939;28;7472;-62
2023/02/11 09:51:25;;;;;;;;;;;;;;;26.28;34.95;95887.94;5029999;28;9176;-62
2023/02/11 09:54:27;;;;;;;;;;;;;;;26.33;34.63;95888.03;4991042;28;7147;-62
2023/02/11 09:57:09;;;;;;;;;;;;;;;26.38;34.51;95887.34;4993099;28;7399;-61
2023/02/11 09:59:53;;;;;;;;;;;;;;;26.40;34.65;95881.38;4987850;28;7449;-61
2023/02/11 10:03:03;;;;;;;;;;;;;;;26.41;34.64;95891.16;4991006;28;7023;-61
2023/02/11 10:05:57;;;;;;;;;;;;;;;26.42;34.76;95884.41;4982018;28;9277;-61
2023/02/11 10:08:44;;;;;;;;;;;;;;;26.50;34.60;95885.50;4985717;28;7359;-62
2023/02/11 10:11:35;;;;;;;;;;;;;;;26.48;34.79;95874.97;4992640;28;7287;-62
2023/02/11 10:14:40;;;;;;;;;;;;;;;26.52;34.75;95885.78;4984899;28;9086;-62
2023/02/11 10:17:21;;;;;;;;;;;;;;;26.55;34.93;95887.59;4970470;28;7072;-61
2023/02/11 10:20:25;;;;;;;;;;;;;;;26.54;35.12;95895.09;4973977;28;8755;-61
2023/02/11 10:22:56;;;;;;;;;;;;;;;26.59;34.53;95894.44;4973876;28;9129;-61
2023/02/11 10:25:36;;;;;;;;;;;;;;;26.61;35.15;95904.97;4976173;28;7003;-60
2023/02/11 10:28:26;;;;;;;;;;;;;;;26.61;34.20;95896.69;4973352;28;7289;-61
2023/02/11 10:30:58;;;;;;;;;;;;;;;26.62;34.64;95898.97;4991920;28;9524;-61
2023/02/11 10:33:34;;;;;;;;;;;;;;;26.63;34.63;95900.50;5009553;28;7311;-61
2023/02/11 10:36:05;;;;;;;;;;;;;;;26.61;34.61;95900.22;5008963;28;7278;-62
2023/02/11 10:38:32;;;;;;;;;;;;;;;26.59;34.40;95888.91;5024440;28;7263;-61
2023/02/11 10:41:44;;;;;;;;;;;;;;;26.63;34.36;95886.69;5010512;28;8748;-61
2023/02/11 10:45:00;;;;;;;;;;;;;;;26.65;35.21;95888.97;4935640;28;7574;-61
2023/02/11 10:47:38;;;;;;;;;;;;;;;26.64;34.84;95876.41;4945625;28;7301;-62
2023/02/11 10:50:41;;;;;;;;;;;;;;;26.67;34.51;95873.44;4954723;28;7251;-61
2023/02/11 10:53:20;;;;;;;;;;;;;;;26.66;34.42;95871.19;4953653;28;9415;-61
2023/02/11 10:56:41;;;;;;;;;;;;;;;26.67;34.82;95864.41;4936887;28;8237;-61
2023/02/11 10:59:42;;;;;;;;;;;;;;;26.69;35.24;95867.44;4939936;28;7033;-61
2023/02/11 11:02:33;;;;;;;;;;;;;;;26.63;34.43;95864.63;4918155;29;7292;-61
2023/02/11 11:05:15;;;;;;;;;;;;;;;26.62;34.92;95874.13;4909756;29;7309;-62
2023/02/11 11:08:07;;;;;;;;;;;;;;;26.65;35.25;95872.41;4914205;29;9079;-62
2023/02/11 11:10:35;;;;;;;;;;;;;;;26.68;35.17;95871.44;4933942;29;9212;-61
2023/02/11 11:13:02;;;;;;;;;;;;;;;26.64;34.73;95868.16;4912605;29;7351;-61
2023/02/11 11:15:39;;;;;;;;;;;;;;;26.66;35.51;95860.13;4925327;29;7146;-62
2023/02/11 11:18:12;;;;;;;;;;;;;;;26.63;35.29;95872.13;4914679;29;7778;-61
2023/02/11 11:21:00;;;;;;;;;;;;;;;26.66;34.96;95868.41;4938146;28;7311;-62
2023/02/11 11:23:29;;;;;;;;;;;;;;;26.69;35.58;95859.91;4955633;28;7265;-62
2023/02/11 11:26:11;;;;;;;;;;;;;;;26.72;34.55;95856.22;4952936;28;8711;-62
2023/02/11 11:28:49;;;;;;;;;;;;;;;26.74;35.06;95850.22;4944953;28;9077;-61
2023/02/11 11:31:23;;;;;;;;;;;;;;;26.76;34.45;95847.75;4967247;28;9639;-61
2023/02/11 11:33:54;;;;;;;;;;;;;;;26.74;34.54;95842.72;4950961;28;7634;-62
2023/02/11 11:36:32;;;;;;;;;;;;;;;26.77;35.10;95847.25;4950955;28;9099;-62
2023/02/11 11:39:22;;;;;;;;;;;;;;;26.77;34.73;95844.47;5000911;28;8758;-61
2023/02/11 11:42:26;;;;;;;;;;;;;;;26.76;34.98;95842.22;5026551;28;7231;-61
2023/02/11 11:45:21;;;;;;;;;;;;;;;26.71;34.59;95838.13;5009080;28;7198;-61
2023/02/11 11:48:12;;;;;;;;;;;;;;;26.67;35.28;95840.31;5011554;28;9062;-62
2023/02/11 11:51:10;;;;;;;;;;;;;;;26.67;35.50;95834.81;5028592;28;8846;-62
2023/02/11 11:54:07;;;;;;;;;;;;;;;26.65;35.60;95829.00;5027308;28;8820;-62
2023/02/11 11:57:04;;;;;;;;;;;;;;;26.65;35.66;95836.53;4977205;28;9171;-62
2023/02/11 11:59:46;;;;;;;;;;;;;;;26.67;35.29;95836.81;4969018;28;9078;-62
2023/02/11 12:02:50;;;;;;;;;;;;;;;26.71;34.74;95840.09;4971049;28;9186;-61
2023/02/11 12:05:31;;;;;;;;;;;;;;;26.74;35.24;95833.66;4969489;28;7160;-61
2023/02/11 12:08:29;;;;;;;;;;;;;;;26.78;34.60;95834.97;4970957;28;7226;-61
2023/02/11 12:11:32;;;;;;;;;;;;;;;26.78;33.97;95829.44;4974355;28;9036;-61
2023/02/11 12:14:45;;;;;;;;;;;;;;;26.78;33.22;95834.97;4970345;28;9011;-61
2023/02/11 12:17:47;;;;;;;;;;;;;;;26.79;33.08;95828.22;4913855;29;9027;-61
2023/02/11 12:20:57;;;;;;;;;;;;;;;26.74;32.47;95839.19;4930282;29;9096;-61
2023/02/11 12:24:13;;;;;;;;;;;;;;;26.79;32.64;95844.03;4872094;29;8945;-61
2023/02/11 12:27:32;;;;;;;;;;;;;;;26.80;32.42;95842.75;4833495;29;7075;-61
2023/02/11 12:30:39;;;;;;;;;;;;;;;26.77;32.08;95832.72;4824598;29;7275;-61
2023/02/11 12:33:30;;;;;;;;;;;;;;;26.76;32.09;95831.94;4845860;29;7256;-61
2023/02/11 12:36:08;;;;;;;;;;;;;;;26.76;32.57;95823.66;4857003;29;7525;-61
2023/02/11 12:38:51;;;;;;;;;;;;;;;26.75;32.22;95824.16;4864809;29;7252;-61
2023/02/11 12:45:03;;;;;;;;;;;;;;;26.77;32.79;95816.16;4801073;29;8828;-61
2023/02/11 12:47:38;;;;;;;;;;;;;;;26.77;33.32;95813.38;4786398;29;9414;-61
2023/02/11 12:50:49;;;;;;;;;;;;;;;26.79;33.79;95813.66;4789439;29;7259;-61
2023/02/11 12:53:30;;;;;;;;;;;;;;;26.82;33.66;95807.16;4799368;29;9028;-60
2023/02/11 12:56:19;;;;;;;;;;;;;;;26.84;33.69;95804.66;4837159;29;8813;-61
2023/02/11 12:59:02;;;;;;;;;;;;;;;26.86;33.51;95797.41;4889865;29;9349;-61
2023/02/11 13:01:43;;;;;;;;;;;;;;;26.85;33.57;95797.91;4952130;28;9052;-61
2023/02/11 13:04:48;;;;;;;;;;;;;;;26.89;33.46;95801.22;4938059;28;7349;-61
2023/02/11 13:07:32;;;;;;;;;;;;;;;26.91;33.81;95801.47;4919672;28;7225;-61
2023/02/11 13:10:14;;;;;;;;;;;;;;;26.93;33.71;95796.22;4947200;28;7015;-61
2023/02/11 13:15:38;;;;;;;;;;;;;;;26.99;34.22;95799.78;4952195;28;8394;-61
2023/02/11 13:18:57;;;;;;;;;;;;;;;27.03;34.07;95794.84;4949943;28;9065;-61
2023/02/11 13:21:43;;;;;;;;;;;;;;;27.07;34.08;95789.09;4935239;28;9387;-61
2023/02/11 13:25:01;;;;;;;;;;;;;;;27.09;34.04;95787.38;4974578;28;7155;-62
2023/02/11 13:27:41;;;;;;;;;;;;;;;27.13;33.80;95776.09;4934876;28;8805;-61
2023/02/11 13:30:20;;;;;;;;;;;;;;;27.13;33.96;95776.84;4934066;28;7024;-61
2023/02/11 13:33:00;;;;;;;;;;;;;;;27.17;33.60;95779.38;4950912;28;7293;-61
2023/02/11 13:36:08;;;;;;;;;;;;;;;27.20;33.91;95789.47;4935244;28;9129;-61
2023/02/11 13:38:38;;;;;;;;;;;;;;;27.24;33.73;95788.00;4914104;29;7100;-61
2023/02/11 13:41:36;;;;;;;;;;;;;;;27.25;34.01;95789.50;4926035;29;7333;-61
2023/02/11 13:44:21;;;;;;;;;;;;;;;27.25;34.18;95786.00;4933719;28;8979;-61
2023/02/11 13:47:24;;;;;;;;;;;;;;;27.27;34.08;95789.03;4921289;29;7489;-61
2023/02/11 13:50:42;;;;;;;;;;;;;;;27.27;34.23;95789.81;4917930;29;7504;-62
2023/02/11 13:53:20;;;;;;;;;;;;;;;27.30;34.23;95796.34;4950135;28;7171;-61
2023/02/11 13:55:52;;;;;;;;;;;;;;;27.31;34.20;95781.28;4932853;29;8509;-62
2023/02/11 13:58:31;;;;;;;;;;;;;;;27.35;34.13;95793.66;4990667;28;9393;-62
2023/02/11 14:01:06;;;;;;;;;;;;;;;27.34;33.81;95778.28;4991011;28;8279;-62
2023/02/11 14:09:16;;;;;;;;;;;;;;;27.40;34.04;95783.91;5014211;28;7028;-62
2023/02/11 14:11:56;;;;;;;;;;;;;;;27.42;33.83;95770.38;5012799;28;7047;-62
2023/02/11 14:14:58;;;;;;;;;;;;;;;27.44;33.78;95774.16;5027138;28;7034;-62
2023/02/11 14:17:32;;;;;;;;;;;;;;;27.49;33.89;95769.94;5009928;28;7352;-62
2023/02/11 14:20:03;;;;;;;;;;;;;;;27.52;33.67;95777.22;5020311;28;8267;-62
2023/02/11 14:22:48;;;;;;;;;;;;;;;27.55;33.81;95770.72;5026753;28;7252;-61
2023/02/11 14:25:58;;;;;;;;;;;;;;;27.58;33.99;95773.25;5028394;28;9172;-61
2023/02/11 14:28:43;;;;;;;;;;;;;;;27.63;34.08;95780.06;5029545;28;9450;-62